createdAt,value
2023-01-29T00:00:20.846Z,9.35
2023-01-29T00:02:47.478Z,8.90
2023-01-29T00:05:27.128Z,9.30
2023-01-29T00:07:56.430Z,10.27
2023-01-29T00:10:24.875Z,8.60
2023-01-29T00:12:51.937Z,8.88
2023-01-29T00:15:18.827Z,9.73
2023-01-29T00:17:45.294Z,9.10
2023-01-29T00:20:12.266Z,9.85
2023-01-29T00:22:38.728Z,10.33
2023-01-29T00:25:05.664Z,9.65
2023-01-29T00:27:32.129Z,9.50
2023-01-29T00:30:16.353Z,9.32
2023-01-29T00:32:43.024Z,9.25
2023-01-29T00:35:09.891Z,9.17
2023-01-29T00:37:36.425Z,9.88
2023-01-29T00:40:03.848Z,9.82
2023-01-29T00:42:49.146Z,10.18
2023-01-29T00:45:15.787Z,9.93
2023-01-29T00:47:42.299Z,9.37
2023-01-29T00:50:11.440Z,9.10
2023-01-29T00:52:38.490Z,9.32
2023-01-29T00:55:05.926Z,9.60
2023-01-29T00:57:34.016Z,10.13
2023-01-29T01:00:01.029Z,9.33
2023-01-29T01:02:46.848Z,9.77
2023-01-29T01:05:19.005Z,9.10
2023-01-29T01:07:47.745Z,9.40
2023-01-29T01:10:21.866Z,9.40
2023-01-29T01:12:50.757Z,8.83
2023-01-29T01:15:18.054Z,8.98
2023-01-29T01:17:44.721Z,8.82
2023-01-29T01:20:12.420Z,8.55
2023-01-29T01:22:38.900Z,7.90
2023-01-29T01:25:05.778Z,8.97
2023-01-29T01:27:32.314Z,8.38
2023-01-29T01:29:58.797Z,8.57
2023-01-29T01:32:26.051Z,8.50
2023-01-29T01:34:53.566Z,8.07
2023-01-29T01:37:20.350Z,9.43
2023-01-29T01:39:48.932Z,8.43
2023-01-29T01:42:15.391Z,9.10
2023-01-29T01:44:53.388Z,8.05
2023-01-29T01:47:27.066Z,8.38
2023-01-29T01:49:54.938Z,7.77
2023-01-29T01:52:21.987Z,8.75
2023-01-29T01:54:49.439Z,8.57
2023-01-29T01:57:25.206Z,9.27
2023-01-29T02:00:09.983Z,9.13
2023-01-29T02:02:57.971Z,8.50
2023-01-29T02:05:43.885Z,8.13
2023-01-29T02:08:29.237Z,8.48
2023-01-29T02:10:55.716Z,8.20
2023-01-29T02:13:23.040Z,8.38
2023-01-29T02:15:49.669Z,8.77
2023-01-29T02:18:19.265Z,8.30
2023-01-29T02:21:31.550Z,8.60
2023-01-29T02:24:38.897Z,8.05
2023-01-29T02:27:11.851Z,8.82
2023-01-29T02:29:49.769Z,8.43
2023-01-29T02:32:21.119Z,9.00
2023-01-29T02:35:28.446Z,8.75
2023-01-29T02:38:11.354Z,8.73
2023-01-29T02:40:45.408Z,8.95
2023-01-29T02:43:44.085Z,8.47
2023-01-29T02:46:19.498Z,9.10
2023-01-29T02:48:57.675Z,8.73
2023-01-29T02:51:38.482Z,8.85
2023-01-29T02:54:32.578Z,8.60
2023-01-29T02:57:05.073Z,8.83
2023-01-29T02:59:42.202Z,10.32
2023-01-29T03:02:16.382Z,9.25
2023-01-29T03:04:49.223Z,8.93
2023-01-29T03:07:41.205Z,9.90
2023-01-29T03:10:17.521Z,9.37
2023-01-29T03:12:51.150Z,9.07
2023-01-29T03:15:27.273Z,9.80
2023-01-29T03:18:11.474Z,9.35
2023-01-29T03:20:48.176Z,9.27
2023-01-29T03:23:24.164Z,9.83
2023-01-29T03:26:18.135Z,9.82
2023-01-29T03:29:04.865Z,10.57
2023-01-29T03:31:50.889Z,9.68
2023-01-29T03:34:24.468Z,10.23
2023-01-29T03:37:05.508Z,9.67
2023-01-29T03:39:31.943Z,10.27
2023-01-29T03:42:04.912Z,10.10
2023-01-29T03:44:37.127Z,11.63
2023-01-29T03:47:13.785Z,12.15
2023-01-29T03:49:49.277Z,10.27
2023-01-29T03:52:25.760Z,10.18
2023-01-29T03:55:10.634Z,11.13
2023-01-29T03:57:54.547Z,11.10
2023-01-29T04:00:28.014Z,10.18
2023-01-29T04:03:24.545Z,10.07
2023-01-29T04:05:50.956Z,10.77
2023-01-29T04:08:29.169Z,11.57
2023-01-29T04:10:59.377Z,10.80
2023-01-29T04:13:27.522Z,9.95
2023-01-29T04:15:58.416Z,11.60
2023-01-29T04:18:25.578Z,10.23
2023-01-29T04:20:52.284Z,10.75
2023-01-29T04:23:24.922Z,10.30
2023-01-29T04:26:25.333Z,10.27
2023-01-29T04:29:30.185Z,11.40
2023-01-29T04:32:20.137Z,11.10
2023-01-29T04:35:05.237Z,10.32
2023-01-29T04:38:02.556Z,10.30
2023-01-29T04:40:41.295Z,10.95
2023-01-29T04:43:30.451Z,10.47
2023-01-29T04:46:21.825Z,10.85
2023-01-29T04:49:13.033Z,11.27
2023-01-29T04:51:45.395Z,10.45
2023-01-29T04:54:33.138Z,10.93
2023-01-29T04:57:08.581Z,9.90
2023-01-29T04:59:42.813Z,11.52
2023-01-29T05:02:11.955Z,10.82
2023-01-29T05:04:40.948Z,11.05
2023-01-29T05:07:12.425Z,11.55
2023-01-29T05:09:40.067Z,11.23
2023-01-29T05:12:10.617Z,9.95
2023-01-29T05:14:39.660Z,11.52
2023-01-29T05:17:12.572Z,11.15
2023-01-29T05:19:39.069Z,11.13
2023-01-29T05:22:08.870Z,11.27
2023-01-29T05:24:35.978Z,11.23
2023-01-29T05:27:22.028Z,12.07
2023-01-29T05:29:48.723Z,10.75
2023-01-29T05:32:16.054Z,11.60
2023-01-29T05:34:42.554Z,10.80
2023-01-29T05:37:10.461Z,11.02
2023-01-29T05:39:36.907Z,10.70
2023-01-29T05:42:03.606Z,11.35
2023-01-29T05:44:30.061Z,11.73
2023-01-29T05:46:56.690Z,11.60
2023-01-29T05:49:23.263Z,12.85
2023-01-29T05:51:49.794Z,11.20
2023-01-29T05:54:16.285Z,11.98
2023-01-29T05:56:42.861Z,11.75
2023-01-29T05:59:09.384Z,11.67
2023-01-29T06:01:35.913Z,11.25
2023-01-29T06:04:02.436Z,11.27
2023-01-29T06:06:28.959Z,11.40
2023-01-29T06:08:56.133Z,11.57
2023-01-29T06:11:22.759Z,11.27
2023-01-29T06:13:49.307Z,11.50
2023-01-29T06:16:15.922Z,10.88
2023-01-29T06:18:42.989Z,10.80
2023-01-29T06:21:12.300Z,11.70
2023-01-29T06:23:39.231Z,11.77
2023-01-29T06:26:08.595Z,11.25
2023-01-29T06:28:35.569Z,10.85
2023-01-29T06:31:23.668Z,12.80
2023-01-29T06:33:50.416Z,10.85
2023-01-29T06:36:16.972Z,10.50
2023-01-29T06:38:43.494Z,11.50
2023-01-29T06:41:12.266Z,11.07
2023-01-29T06:43:39.616Z,10.90
2023-01-29T06:46:08.262Z,10.85
2023-01-29T06:48:34.885Z,11.60
2023-01-29T06:51:05.705Z,10.68
2023-01-29T06:53:34.472Z,11.35
2023-01-29T06:56:01.199Z,10.68
2023-01-29T06:58:27.713Z,10.52
2023-01-29T07:00:54.251Z,10.87
2023-01-29T07:03:20.854Z,10.65
2023-01-29T07:05:51.994Z,10.13
2023-01-29T07:08:19.059Z,11.23
2023-01-29T07:10:45.604Z,9.73
2023-01-29T07:13:12.117Z,10.73
2023-01-29T07:15:38.651Z,11.05
2023-01-29T07:18:11.968Z,10.05
2023-01-29T07:20:42.813Z,10.55
2023-01-29T07:23:13.481Z,10.75
2023-01-29T07:25:40.591Z,10.97
2023-01-29T07:28:07.671Z,10.57
2023-01-29T07:30:34.414Z,11.02
2023-01-29T07:33:07.442Z,11.07
2023-01-29T07:35:42.063Z,11.02
2023-01-29T07:38:10.295Z,10.13
2023-01-29T07:40:37.319Z,10.48
2023-01-29T07:43:06.688Z,10.70
2023-01-29T07:45:35.404Z,10.63
2023-01-29T07:48:02.061Z,10.68
2023-01-29T07:50:28.619Z,10.03
2023-01-29T07:52:55.274Z,11.45
2023-01-29T07:55:21.750Z,10.88
2023-01-29T07:57:48.309Z,10.70
2023-01-29T08:00:15.539Z,9.75
2023-01-29T08:02:42.337Z,9.77
2023-01-29T08:05:09.221Z,10.30
2023-01-29T08:07:35.729Z,9.88
2023-01-29T08:10:02.253Z,10.30
2023-01-29T08:12:28.807Z,10.30
2023-01-29T08:14:55.406Z,10.10
2023-01-29T08:17:21.946Z,11.05
2023-01-29T08:19:48.488Z,9.85
2023-01-29T08:22:17.823Z,10.25
2023-01-29T08:24:53.707Z,9.90
2023-01-29T08:27:26.926Z,10.57
2023-01-29T08:29:53.492Z,9.10
2023-01-29T08:32:19.982Z,9.90
2023-01-29T08:34:46.411Z,10.45
2023-01-29T08:37:12.877Z,9.30
2023-01-29T08:39:39.431Z,10.37
2023-01-29T08:42:06.083Z,10.90
2023-01-29T08:44:32.627Z,10.02
2023-01-29T08:46:59.111Z,10.15
2023-01-29T08:49:25.731Z,9.73
2023-01-29T08:51:52.227Z,10.53
2023-01-29T08:54:18.680Z,10.32
2023-01-29T08:56:45.740Z,9.90
2023-01-29T08:59:12.442Z,10.60
2023-01-29T09:01:38.915Z,9.73
2023-01-29T09:04:05.446Z,11.40
2023-01-29T09:06:31.889Z,10.07
2023-01-29T09:08:58.408Z,10.82
2023-01-29T09:11:24.914Z,9.75
2023-01-29T09:13:51.480Z,9.55
2023-01-29T09:16:18.365Z,10.63
2023-01-29T09:18:44.898Z,10.20
2023-01-29T09:21:11.469Z,9.55
2023-01-29T09:23:38.236Z,9.68
2023-01-29T09:26:04.928Z,10.43
2023-01-29T09:28:31.473Z,10.13
2023-01-29T09:31:01.726Z,9.90
2023-01-29T09:33:29.120Z,9.90
2023-01-29T09:35:55.548Z,10.07
2023-01-29T09:38:23.033Z,10.52
2023-01-29T09:41:08.883Z,10.63
2023-01-29T09:43:59.014Z,10.52
2023-01-29T09:46:43.736Z,10.38
2023-01-29T09:49:21.099Z,10.10
2023-01-29T09:51:53.079Z,10.35
2023-01-29T09:54:47.119Z,10.90
2023-01-29T09:57:22.561Z,9.07
2023-01-29T09:59:49.194Z,10.70
2023-01-29T10:02:38.597Z,10.00
2023-01-29T10:05:16.939Z,9.90
2023-01-29T10:08:01.892Z,10.70
2023-01-29T10:10:36.406Z,10.27
2023-01-29T10:13:15.542Z,10.63
2023-01-29T10:15:49.853Z,10.38
2023-01-29T10:18:48.362Z,10.88
2023-01-29T10:21:27.161Z,9.97
2023-01-29T10:24:11.526Z,10.50
2023-01-29T10:26:40.660Z,11.13
2023-01-29T10:29:08.356Z,10.30
2023-01-29T10:31:40.304Z,10.50
2023-01-29T10:34:19.192Z,11.07
2023-01-29T10:36:48.127Z,11.00
2023-01-29T10:39:17.745Z,12.10
2023-01-29T10:42:09.955Z,11.20
2023-01-29T10:44:42.438Z,10.70
2023-01-29T10:47:29.967Z,10.37
2023-01-29T10:50:17.532Z,10.60
2023-01-29T10:52:59.113Z,10.95
2023-01-29T10:55:46.195Z,10.43
2023-01-29T10:58:27.849Z,10.88
2023-01-29T11:00:54.335Z,11.40
2023-01-29T11:03:29.335Z,11.65
2023-01-29T11:06:03.017Z,10.82
2023-01-29T11:08:57.169Z,11.07
2023-01-29T11:11:36.314Z,10.73
2023-01-29T11:14:08.919Z,11.20
2023-01-29T11:16:47.484Z,11.73
2023-01-29T11:19:15.348Z,11.50
2023-01-29T11:22:01.909Z,12.02
2023-01-29T11:24:28.613Z,11.70
2023-01-29T11:26:58.780Z,11.13
2023-01-29T11:29:48.098Z,12.23
2023-01-29T11:32:23.777Z,11.93
2023-01-29T11:35:19.623Z,12.32
2023-01-29T11:37:47.012Z,12.45
2023-01-29T11:40:19.704Z,11.87
2023-01-29T11:42:47.402Z,12.60
2023-01-29T11:45:19.858Z,12.20
2023-01-29T11:48:04.964Z,12.90
2023-01-29T11:50:33.700Z,12.00
2023-01-29T11:53:00.389Z,12.33
2023-01-29T11:55:48.191Z,12.50
2023-01-29T11:58:21.316Z,12.18
2023-01-29T12:00:52.032Z,12.07
2023-01-29T12:03:24.914Z,12.35
2023-01-29T12:06:02.861Z,13.40
2023-01-29T12:08:36.604Z,13.50
2023-01-29T12:11:14.042Z,12.20
2023-01-29T12:13:43.408Z,13.45
2023-01-29T12:16:20.634Z,13.07
2023-01-29T12:19:15.777Z,12.23
2023-01-29T12:22:04.100Z,12.05
2023-01-29T12:24:30.645Z,13.45
2023-01-29T12:27:23.723Z,12.57
2023-01-29T12:29:56.515Z,14.70
2023-01-29T12:32:36.987Z,12.97
2023-01-29T12:35:13.363Z,12.95
2023-01-29T12:38:10.565Z,13.70
2023-01-29T12:40:55.580Z,13.45
2023-01-29T12:43:40.212Z,13.93
2023-01-29T12:46:15.074Z,12.73
2023-01-29T12:48:44.279Z,13.20
2023-01-29T12:51:16.507Z,13.75
2023-01-29T12:53:59.823Z,13.43
2023-01-29T12:56:39.838Z,13.93
2023-01-29T12:59:19.838Z,13.77
2023-01-29T13:01:59.554Z,13.20
2023-01-29T13:04:35.274Z,13.50
2023-01-29T13:07:12.182Z,14.02
2023-01-29T13:09:43.164Z,15.05
2023-01-29T13:12:18.619Z,13.87
2023-01-29T13:15:06.799Z,14.18
2023-01-29T13:17:38.009Z,15.25
2023-01-29T13:20:21.230Z,14.00
2023-01-29T13:22:49.667Z,14.55
2023-01-29T13:25:19.042Z,14.43
2023-01-29T13:27:48.685Z,13.90
2023-01-29T13:30:28.373Z,13.80
2023-01-29T13:33:09.063Z,15.23
2023-01-29T13:35:43.060Z,12.73
2023-01-29T13:38:28.450Z,13.57
2023-01-29T13:41:03.209Z,14.73
2023-01-29T13:43:37.076Z,13.95
2023-01-29T13:46:14.415Z,14.15
2023-01-29T13:48:43.348Z,13.32
2023-01-29T13:51:15.648Z,13.63
2023-01-29T13:53:44.177Z,13.27
2023-01-29T13:56:32.608Z,13.52
2023-01-29T13:59:00.696Z,13.43
2023-01-29T14:01:45.520Z,13.43
2023-01-29T14:04:31.885Z,13.63
2023-01-29T14:06:59.580Z,13.25
2023-01-29T14:09:38.444Z,12.85
2023-01-29T14:12:25.362Z,12.70
2023-01-29T14:14:56.635Z,11.63
2023-01-29T14:17:26.839Z,12.57
2023-01-29T14:20:00.234Z,13.05
2023-01-29T14:22:28.624Z,13.13
2023-01-29T14:25:05.854Z,13.43
2023-01-29T14:27:32.920Z,12.82
2023-01-29T14:30:07.487Z,12.07
2023-01-29T14:32:34.096Z,12.25
2023-01-29T14:35:17.815Z,12.90
2023-01-29T14:37:49.120Z,12.30
2023-01-29T14:40:23.711Z,12.85
2023-01-29T14:43:19.940Z,13.13
2023-01-29T14:45:48.171Z,12.30
2023-01-29T14:48:46.250Z,12.95
2023-01-29T14:51:17.667Z,12.48
2023-01-29T14:53:53.415Z,12.48
2023-01-29T14:56:40.733Z,12.43
2023-01-29T14:59:30.934Z,11.85
2023-01-29T15:02:03.454Z,12.40
2023-01-29T15:04:44.475Z,12.02
2023-01-29T15:07:10.910Z,12.80
2023-01-29T15:09:54.180Z,12.70
2023-01-29T15:12:31.456Z,12.80
2023-01-29T15:15:06.448Z,12.90
2023-01-29T15:17:55.623Z,13.38
2023-01-29T15:20:41.444Z,12.70
2023-01-29T15:23:30.378Z,12.83
2023-01-29T15:26:01.640Z,12.10
2023-01-29T15:28:33.254Z,12.43
2023-01-29T15:31:04.227Z,11.38
2023-01-29T15:33:32.114Z,11.40
2023-01-29T15:36:07.670Z,12.20
2023-01-29T15:38:35.525Z,13.38
2023-01-29T15:41:14.367Z,12.55
2023-01-29T15:43:44.956Z,12.43
2023-01-29T15:46:15.797Z,11.85
2023-01-29T15:48:44.531Z,11.20
2023-01-29T15:51:17.572Z,12.45
2023-01-29T15:53:54.135Z,12.45
2023-01-29T15:56:28.215Z,12.25
2023-01-29T15:58:57.392Z,11.40
2023-01-29T16:01:27.587Z,11.40
2023-01-29T16:03:54.669Z,11.80
2023-01-29T16:06:22.887Z,12.32
2023-01-29T16:08:54.506Z,10.77
2023-01-29T16:11:21.703Z,11.23
2023-01-29T16:13:49.871Z,11.90
2023-01-29T16:16:16.421Z,12.48
2023-01-29T16:18:57.795Z,11.88
2023-01-29T16:21:25.612Z,11.73
2023-01-29T16:23:56.318Z,11.57
2023-01-29T16:26:28.205Z,11.07
2023-01-29T16:28:55.589Z,12.02
2023-01-29T16:31:31.241Z,11.10
2023-01-29T16:33:59.719Z,11.07
2023-01-29T16:36:27.864Z,11.50
2023-01-29T16:39:01.076Z,11.93
2023-01-29T16:41:30.996Z,11.48
2023-01-29T16:44:24.835Z,11.77
2023-01-29T16:46:52.209Z,11.73
2023-01-29T16:49:32.263Z,13.15
2023-01-29T16:52:17.578Z,12.90
2023-01-29T16:54:44.342Z,12.98
2023-01-29T16:57:34.323Z,13.00
2023-01-29T17:00:06.786Z,11.93
2023-01-29T17:02:38.471Z,12.18
2023-01-29T17:05:20.818Z,12.20
2023-01-29T17:07:47.701Z,11.63
2023-01-29T17:10:21.523Z,12.95
2023-01-29T17:12:55.755Z,12.77
2023-01-29T17:15:33.533Z,12.80
2023-01-29T17:18:00.191Z,13.83
2023-01-29T17:20:27.939Z,13.88
2023-01-29T17:22:54.932Z,12.57
2023-01-29T17:25:22.087Z,13.60
2023-01-29T17:27:51.752Z,14.05
2023-01-29T17:30:24.481Z,13.97
2023-01-29T17:32:50.973Z,13.15
2023-01-29T17:35:18.194Z,12.93
2023-01-29T17:37:44.979Z,13.70
2023-01-29T17:40:21.680Z,13.93
2023-01-29T17:42:48.251Z,13.93
2023-01-29T17:45:15.089Z,13.57
2023-01-29T17:47:41.768Z,13.20
2023-01-29T17:50:25.640Z,12.50
2023-01-29T17:52:53.228Z,13.15
2023-01-29T17:55:20.619Z,13.20
2023-01-29T17:57:47.130Z,13.75
2023-01-29T18:00:19.467Z,12.77
2023-01-29T18:02:46.208Z,13.32
2023-01-29T18:05:14.121Z,14.20
2023-01-29T18:07:43.408Z,13.30
2023-01-29T18:10:17.234Z,13.13
2023-01-29T18:12:44.011Z,14.13
2023-01-29T18:15:11.975Z,13.82
2023-01-29T18:17:39.616Z,13.82
2023-01-29T18:20:22.654Z,14.37
2023-01-29T18:22:49.281Z,11.85
2023-01-29T18:25:16.500Z,14.07
2023-01-29T18:27:43.299Z,13.27
2023-01-29T18:30:10.974Z,13.32
2023-01-29T18:32:37.594Z,12.30
2023-01-29T18:35:06.114Z,13.77
2023-01-29T18:37:33.683Z,13.50
2023-01-29T18:40:00.243Z,12.80
2023-01-29T18:42:26.805Z,13.18
2023-01-29T18:44:53.374Z,13.00
2023-01-29T18:47:20.069Z,12.88
2023-01-29T18:49:46.515Z,13.45
2023-01-29T18:52:13.591Z,13.88
2023-01-29T18:54:40.109Z,13.20
2023-01-29T18:57:14.421Z,13.23
2023-01-29T18:59:53.135Z,12.90
2023-01-29T19:02:19.850Z,14.30
2023-01-29T19:04:47.029Z,14.02
2023-01-29T19:07:14.824Z,12.95
2023-01-29T19:09:42.243Z,13.87
2023-01-29T19:12:08.940Z,13.63
2023-01-29T19:14:35.439Z,14.90
2023-01-29T19:17:01.972Z,13.23
2023-01-29T19:19:28.831Z,13.43
2023-01-29T19:21:55.434Z,12.77
2023-01-29T19:24:22.667Z,13.02
2023-01-29T19:26:49.939Z,12.88
2023-01-29T19:29:16.743Z,12.18
2023-01-29T19:31:43.674Z,12.68
2023-01-29T19:34:10.274Z,12.93
2023-01-29T19:36:37.058Z,13.52
2023-01-29T19:39:04.921Z,12.98
2023-01-29T19:41:31.527Z,13.30
2023-01-29T19:43:58.024Z,12.57
2023-01-29T19:46:24.502Z,13.50
2023-01-29T19:48:51.040Z,13.02
2023-01-29T19:51:17.597Z,12.93
2023-01-29T19:53:44.160Z,13.10
2023-01-29T19:56:17.009Z,12.25
2023-01-29T19:58:43.644Z,13.47
2023-01-29T20:01:19.820Z,12.63
2023-01-29T20:03:48.048Z,13.18
2023-01-29T20:06:22.177Z,12.88
2023-01-29T20:08:49.123Z,13.18
2023-01-29T20:11:17.764Z,13.00
2023-01-29T20:13:47.439Z,13.32
2023-01-29T20:16:14.313Z,13.82
2023-01-29T20:18:40.839Z,13.25
2023-01-29T20:21:10.301Z,13.85
2023-01-29T20:23:38.923Z,14.33
2023-01-29T20:26:11.554Z,13.90
2023-01-29T20:28:38.258Z,14.10
2023-01-29T20:31:05.897Z,13.77
2023-01-29T20:33:34.661Z,13.10
2023-01-29T20:36:04.358Z,13.73
2023-01-29T20:38:31.773Z,13.65
2023-01-29T20:41:04.874Z,13.10
2023-01-29T20:43:32.064Z,13.35
2023-01-29T20:45:59.414Z,12.68
2023-01-29T20:48:26.539Z,13.50
2023-01-29T20:50:54.171Z,15.50
2023-01-29T20:53:20.640Z,13.93
2023-01-29T20:55:47.363Z,14.35
2023-01-29T20:58:14.212Z,13.52
2023-01-29T21:00:41.364Z,13.10
2023-01-29T21:03:07.971Z,13.43
2023-01-29T21:05:34.460Z,13.70
2023-01-29T21:08:01.021Z,14.82
2023-01-29T21:10:27.487Z,14.27
2023-01-29T21:12:54.681Z,13.83
2023-01-29T21:15:21.352Z,14.25
2023-01-29T21:17:48.263Z,13.98
2023-01-29T21:20:15.132Z,13.27
2023-01-29T21:22:43.917Z,13.43
2023-01-29T21:25:11.106Z,13.23
2023-01-29T21:27:37.621Z,14.43
2023-01-29T21:30:04.684Z,13.93
2023-01-29T21:32:31.213Z,13.48
2023-01-29T21:34:57.758Z,14.05
2023-01-29T21:37:24.232Z,13.80
2023-01-29T21:39:50.746Z,12.98
2023-01-29T21:42:35.806Z,13.57
2023-01-29T21:45:02.327Z,14.88
2023-01-29T21:47:28.799Z,14.40
2023-01-29T21:49:55.254Z,13.97
2023-01-29T21:52:21.821Z,14.32
2023-01-29T21:54:48.836Z,13.60
2023-01-29T21:57:16.335Z,14.95
2023-01-29T21:59:43.489Z,14.38
2023-01-29T22:02:14.867Z,12.87
2023-01-29T22:04:42.636Z,13.75
2023-01-29T22:07:10.462Z,13.45
2023-01-29T22:09:37.614Z,14.50
2023-01-29T22:12:06.688Z,14.38
2023-01-29T22:14:33.784Z,13.23
2023-01-29T22:17:00.387Z,14.15
2023-01-29T22:19:28.689Z,13.80
2023-01-29T22:21:55.549Z,13.95
2023-01-29T22:24:22.085Z,13.43
2023-01-29T22:26:49.532Z,14.27
2023-01-29T22:29:17.075Z,14.52
2023-01-29T22:31:44.416Z,13.63
2023-01-29T22:34:12.006Z,15.43
2023-01-29T22:36:39.202Z,13.98
2023-01-29T22:39:09.262Z,14.03
2023-01-29T22:41:36.087Z,14.40
2023-01-29T22:44:02.764Z,14.13
2023-01-29T22:46:29.338Z,15.20
2023-01-29T22:48:56.558Z,13.60
2023-01-29T22:51:23.422Z,13.30
2023-01-29T22:53:56.272Z,13.52
2023-01-29T22:56:26.247Z,13.50
2023-01-29T22:58:54.377Z,14.05
2023-01-29T23:01:31.821Z,13.20
2023-01-29T23:03:58.405Z,14.70
2023-01-29T23:06:24.907Z,13.20
2023-01-29T23:08:51.620Z,14.27
2023-01-29T23:11:20.481Z,13.93
2023-01-29T23:13:52.828Z,13.63
2023-01-29T23:16:22.065Z,14.17
2023-01-29T23:18:53.699Z,13.10
2023-01-29T23:21:22.674Z,14.00
2023-01-29T23:23:49.229Z,13.48
2023-01-29T23:26:34.440Z,13.80
2023-01-29T23:29:01.023Z,11.97
2023-01-29T23:31:27.521Z,12.13
2023-01-29T23:33:54.026Z,13.27
2023-01-29T23:36:20.530Z,13.13
2023-01-29T23:38:47.027Z,12.73
2023-01-29T23:41:13.586Z,12.97
2023-01-29T23:43:40.128Z,12.80
2023-01-29T23:46:06.634Z,12.75
2023-01-29T23:48:33.289Z,11.32
2023-01-29T23:50:59.765Z,12.48
2023-01-29T23:53:26.352Z,12.57
2023-01-29T23:55:58.062Z,11.93
2023-01-29T23:58:25.035Z,12.40
